<?xml version="1.0" encoding="UTF-8" standalone="no" ?>
<gpx xmlns="http://www.topografix.com/GPX/1/1" xmlns:xsi="http://www.w3.org/2001/XMLSchema-instance" xsi:schemaLocation="http://www.topografix.com/GPX/1/1 http://www.topografix.com/GPX/1/1/gpx.xsd" version="1.1" creator="VisuGPX - https://www.visugpx.com">
  <metadata>
    <name>Classique+ErmitageStPierre+FontaineDesGours+ValatNoir</name>
    <desc><![CDATA[Belle bouclette sur les rives de la Dourbie avec deux bonus a faire à pied .]]></desc>
  </metadata>
  <wpt lat="44.11428" lon="3.1993">
    <ele>725.8</ele>
    <name><![CDATA[Boucle a faire à pieds]]></name>
    <type><![CDATA[star]]></type>
  </wpt>
  <wpt lat="44.11159" lon="3.20694">
    <ele>596.8</ele>
    <name><![CDATA[Boucle a faire à pieds]]></name>
    <type><![CDATA[star]]></type>
  </wpt>
  <trk>
    <name><![CDATA[Remonté sur Le Maubert par GR]]></name>
    <desc><![CDATA[Remonté sur Le Maubert via La Bresse par le GR puis single dans la pampa , au choix .]]></desc>
    <extensions>
      <line xmlns="http://www.topografix.com/GPX/gpx_style/0/2">
        <color>008040</color>
        <width>4</width>
      </line>
    </extensions>
    <trkseg>
      <trkpt lat="44.14684" lon="3.21611">
        <ele>657</ele>
        <time>2024-11-07T12:09:47.000Z</time>
      </trkpt>
      <trkpt lat="44.14685" lon="3.21598">
        <ele>657.5</ele>
        <time>2024-11-07T12:09:57.000Z</time>
      </trkpt>
      <trkpt lat="44.14692" lon="3.21588">
        <ele>658.5</ele>
        <time>2024-11-07T12:10:06.000Z</time>
      </trkpt>
      <trkpt lat="44.14687" lon="3.21577">
        <ele>660</ele>
        <time>2024-11-07T12:10:16.000Z</time>
      </trkpt>
      <trkpt lat="44.14693" lon="3.21589">
        <ele>661.2</ele>
        <time>2024-11-07T12:10:30.000Z</time>
      </trkpt>
      <trkpt lat="44.14699" lon="3.216">
        <ele>661.4</ele>
        <time>2024-11-07T12:10:35.000Z</time>
      </trkpt>
      <trkpt lat="44.14708" lon="3.21608">
        <ele>661.7</ele>
        <time>2024-11-07T12:10:42.000Z</time>
      </trkpt>
      <trkpt lat="44.14717" lon="3.2161">
        <ele>662</ele>
        <time>2024-11-07T12:10:48.000Z</time>
      </trkpt>
      <trkpt lat="44.14726" lon="3.21611">
        <ele>662.4</ele>
        <time>2024-11-07T12:10:55.000Z</time>
      </trkpt>
      <trkpt lat="44.14724" lon="3.21598">
        <ele>664</ele>
        <time>2024-11-07T12:11:07.000Z</time>
      </trkpt>
      <trkpt lat="44.14717" lon="3.2159">
        <ele>665.2</ele>
        <time>2024-11-07T12:11:15.000Z</time>
      </trkpt>
      <trkpt lat="44.14712" lon="3.21579">
        <ele>666.4</ele>
        <time>2024-11-07T12:11:23.000Z</time>
      </trkpt>
      <trkpt lat="44.14721" lon="3.21573">
        <ele>667.9</ele>
        <time>2024-11-07T12:11:33.000Z</time>
      </trkpt>
      <trkpt lat="44.1473" lon="3.2157">
        <ele>669.5</ele>
        <time>2024-11-07T12:11:41.000Z</time>
      </trkpt>
      <trkpt lat="44.14739" lon="3.21566">
        <ele>671.1</ele>
        <time>2024-11-07T12:11:49.000Z</time>
      </trkpt>
      <trkpt lat="44.14748" lon="3.21562">
        <ele>672.8</ele>
        <time>2024-11-07T12:11:58.000Z</time>
      </trkpt>
      <trkpt lat="44.14757" lon="3.21558">
        <ele>674.4</ele>
        <time>2024-11-07T12:12:07.000Z</time>
      </trkpt>
      <trkpt lat="44.14766" lon="3.21558">
        <ele>675.7</ele>
        <time>2024-11-07T12:12:15.000Z</time>
      </trkpt>
      <trkpt lat="44.14776" lon="3.21557">
        <ele>677.4</ele>
        <time>2024-11-07T12:12:24.000Z</time>
      </trkpt>
      <trkpt lat="44.14785" lon="3.21557">
        <ele>679.3</ele>
        <time>2024-11-07T12:12:33.000Z</time>
      </trkpt>
      <trkpt lat="44.14795" lon="3.21561">
        <ele>681.2</ele>
        <time>2024-11-07T12:12:42.000Z</time>
      </trkpt>
      <trkpt lat="44.14804" lon="3.21565">
        <ele>683.3</ele>
        <time>2024-11-07T12:12:52.000Z</time>
      </trkpt>
      <trkpt lat="44.14813" lon="3.2157">
        <ele>685.4</ele>
        <time>2024-11-07T12:13:02.000Z</time>
      </trkpt>
      <trkpt lat="44.14822" lon="3.21575">
        <ele>687.2</ele>
        <time>2024-11-07T12:13:11.000Z</time>
      </trkpt>
      <trkpt lat="44.14832" lon="3.21576">
        <ele>688.6</ele>
        <time>2024-11-07T12:13:18.000Z</time>
      </trkpt>
      <trkpt lat="44.14837" lon="3.21566">
        <ele>690.1</ele>
        <time>2024-11-07T12:13:26.000Z</time>
      </trkpt>
      <trkpt lat="44.14832" lon="3.21554">
        <ele>692</ele>
        <time>2024-11-07T12:13:36.000Z</time>
      </trkpt>
      <trkpt lat="44.14829" lon="3.21542">
        <ele>693.7</ele>
        <time>2024-11-07T12:13:45.000Z</time>
      </trkpt>
      <trkpt lat="44.14825" lon="3.2153">
        <ele>695</ele>
        <time>2024-11-07T12:13:53.000Z</time>
      </trkpt>
      <trkpt lat="44.14822" lon="3.21518">
        <ele>696.6</ele>
        <time>2024-11-07T12:14:02.000Z</time>
      </trkpt>
      <trkpt lat="44.14818" lon="3.21506">
        <ele>698.3</ele>
        <time>2024-11-07T12:14:12.000Z</time>
      </trkpt>
      <trkpt lat="44.14812" lon="3.21496">
        <ele>700.2</ele>
        <time>2024-11-07T12:14:22.000Z</time>
      </trkpt>
      <trkpt lat="44.14819" lon="3.21487">
        <ele>704</ele>
        <time>2024-11-07T12:14:41.000Z</time>
      </trkpt>
      <trkpt lat="44.14829" lon="3.21486">
        <ele>705.7</ele>
        <time>2024-11-07T12:14:50.000Z</time>
      </trkpt>
      <trkpt lat="44.1484" lon="3.21484">
        <ele>707.1</ele>
        <time>2024-11-07T12:14:58.000Z</time>
      </trkpt>
      <trkpt lat="44.14849" lon="3.21483">
        <ele>708.2</ele>
        <time>2024-11-07T12:15:05.000Z</time>
      </trkpt>
      <trkpt lat="44.14858" lon="3.21478">
        <ele>709.3</ele>
        <time>2024-11-07T12:15:12.000Z</time>
      </trkpt>
      <trkpt lat="44.14868" lon="3.21477">
        <ele>710.9</ele>
        <time>2024-11-07T12:15:22.000Z</time>
      </trkpt>
      <trkpt lat="44.14878" lon="3.21476">
        <ele>711.4</ele>
        <time>2024-11-07T12:15:27.000Z</time>
      </trkpt>
      <trkpt lat="44.14888" lon="3.21475">
        <ele>711.8</ele>
        <time>2024-11-07T12:15:31.000Z</time>
      </trkpt>
      <trkpt lat="44.14899" lon="3.21472">
        <ele>712.2</ele>
        <time>2024-11-07T12:15:35.000Z</time>
      </trkpt>
      <trkpt lat="44.1491" lon="3.21468">
        <ele>712.5</ele>
        <time>2024-11-07T12:15:39.000Z</time>
      </trkpt>
      <trkpt lat="44.1492" lon="3.21464">
        <ele>713.1</ele>
        <time>2024-11-07T12:15:43.000Z</time>
      </trkpt>
      <trkpt lat="44.1493" lon="3.21462">
        <ele>713.7</ele>
        <time>2024-11-07T12:15:47.000Z</time>
      </trkpt>
      <trkpt lat="44.1494" lon="3.21455">
        <ele>714.5</ele>
        <time>2024-11-07T12:15:51.000Z</time>
      </trkpt>
      <trkpt lat="44.14947" lon="3.21443">
        <ele>715.4</ele>
        <time>2024-11-07T12:15:56.000Z</time>
      </trkpt>
      <trkpt lat="44.14953" lon="3.21432">
        <ele>716.4</ele>
        <time>2024-11-07T12:16:01.000Z</time>
      </trkpt>
      <trkpt lat="44.14957" lon="3.2142">
        <ele>717.8</ele>
        <time>2024-11-07T12:16:07.000Z</time>
      </trkpt>
      <trkpt lat="44.1496" lon="3.21408">
        <ele>719.2</ele>
        <time>2024-11-07T12:16:13.000Z</time>
      </trkpt>
      <trkpt lat="44.14963" lon="3.21395">
        <ele>720.5</ele>
        <time>2024-11-07T12:16:20.000Z</time>
      </trkpt>
      <trkpt lat="44.14964" lon="3.21382">
        <ele>721.8</ele>
        <time>2024-11-07T12:16:27.000Z</time>
      </trkpt>
      <trkpt lat="44.14966" lon="3.21369">
        <ele>722.9</ele>
        <time>2024-11-07T12:16:33.000Z</time>
      </trkpt>
      <trkpt lat="44.14969" lon="3.21356">
        <ele>724</ele>
        <time>2024-11-07T12:16:39.000Z</time>
      </trkpt>
      <trkpt lat="44.14971" lon="3.21342">
        <ele>725.3</ele>
        <time>2024-11-07T12:16:46.000Z</time>
      </trkpt>
      <trkpt lat="44.14973" lon="3.2133">
        <ele>726.3</ele>
        <time>2024-11-07T12:16:52.000Z</time>
      </trkpt>
      <trkpt lat="44.14975" lon="3.21315">
        <ele>727.5</ele>
        <time>2024-11-07T12:16:59.000Z</time>
      </trkpt>
      <trkpt lat="44.14976" lon="3.21303">
        <ele>728.4</ele>
        <time>2024-11-07T12:17:04.000Z</time>
      </trkpt>
      <trkpt lat="44.14978" lon="3.2129">
        <ele>729.4</ele>
        <time>2024-11-07T12:17:10.000Z</time>
      </trkpt>
      <trkpt lat="44.14979" lon="3.21277">
        <ele>731.1</ele>
        <time>2024-11-07T12:17:19.000Z</time>
      </trkpt>
      <trkpt lat="44.14981" lon="3.21265">
        <ele>732.7</ele>
        <time>2024-11-07T12:17:27.000Z</time>
      </trkpt>
      <trkpt lat="44.14984" lon="3.21252">
        <ele>734.4</ele>
        <time>2024-11-07T12:17:36.000Z</time>
      </trkpt>
      <trkpt lat="44.14985" lon="3.21239">
        <ele>737.3</ele>
        <time>2024-11-07T12:17:54.000Z</time>
      </trkpt>
      <trkpt lat="44.14986" lon="3.21226">
        <ele>738.3</ele>
        <time>2024-11-07T12:18:03.000Z</time>
      </trkpt>
      <trkpt lat="44.14986" lon="3.21214">
        <ele>739.2</ele>
        <time>2024-11-07T12:18:10.000Z</time>
      </trkpt>
      <trkpt lat="44.14985" lon="3.21201">
        <ele>740.6</ele>
        <time>2024-11-07T12:18:19.000Z</time>
      </trkpt>
      <trkpt lat="44.14982" lon="3.21189">
        <ele>741.7</ele>
        <time>2024-11-07T12:18:25.000Z</time>
      </trkpt>
      <trkpt lat="44.1498" lon="3.21176">
        <ele>743.2</ele>
        <time>2024-11-07T12:18:32.000Z</time>
      </trkpt>
      <trkpt lat="44.1498" lon="3.21162">
        <ele>744.6</ele>
        <time>2024-11-07T12:18:39.000Z</time>
      </trkpt>
      <trkpt lat="44.14977" lon="3.21149">
        <ele>745.3</ele>
        <time>2024-11-07T12:18:44.000Z</time>
      </trkpt>
      <trkpt lat="44.14974" lon="3.21135">
        <ele>746.1</ele>
        <time>2024-11-07T12:18:50.000Z</time>
      </trkpt>
      <trkpt lat="44.14971" lon="3.21122">
        <ele>746.8</ele>
        <time>2024-11-07T12:18:56.000Z</time>
      </trkpt>
      <trkpt lat="44.14966" lon="3.2111">
        <ele>747.5</ele>
        <time>2024-11-07T12:19:01.000Z</time>
      </trkpt>
      <trkpt lat="44.1496" lon="3.21097">
        <ele>748.3</ele>
        <time>2024-11-07T12:19:07.000Z</time>
      </trkpt>
      <trkpt lat="44.14955" lon="3.21086">
        <ele>748.9</ele>
        <time>2024-11-07T12:19:12.000Z</time>
      </trkpt>
      <trkpt lat="44.14951" lon="3.21075">
        <ele>749.4</ele>
        <time>2024-11-07T12:19:17.000Z</time>
      </trkpt>
      <trkpt lat="44.14948" lon="3.21062">
        <ele>749.8</ele>
        <time>2024-11-07T12:19:22.000Z</time>
      </trkpt>
      <trkpt lat="44.14946" lon="3.21047">
        <ele>750.2</ele>
        <time>2024-11-07T12:19:26.000Z</time>
      </trkpt>
      <trkpt lat="44.14942" lon="3.21033">
        <ele>750.6</ele>
        <time>2024-11-07T12:19:30.000Z</time>
      </trkpt>
      <trkpt lat="44.14939" lon="3.21021">
        <ele>751.1</ele>
        <time>2024-11-07T12:19:34.000Z</time>
      </trkpt>
      <trkpt lat="44.14935" lon="3.21009">
        <ele>751.6</ele>
        <time>2024-11-07T12:19:38.000Z</time>
      </trkpt>
      <trkpt lat="44.1493" lon="3.20998">
        <ele>752.2</ele>
        <time>2024-11-07T12:19:42.000Z</time>
      </trkpt>
      <trkpt lat="44.14924" lon="3.20985">
        <ele>752.8</ele>
        <time>2024-11-07T12:19:47.000Z</time>
      </trkpt>
      <trkpt lat="44.14917" lon="3.20974">
        <ele>753.4</ele>
        <time>2024-11-07T12:19:52.000Z</time>
      </trkpt>
      <trkpt lat="44.14911" lon="3.20964">
        <ele>753.8</ele>
        <time>2024-11-07T12:19:56.000Z</time>
      </trkpt>
      <trkpt lat="44.14909" lon="3.20948">
        <ele>754.2</ele>
        <time>2024-11-07T12:20:01.000Z</time>
      </trkpt>
      <trkpt lat="44.1491" lon="3.20934">
        <ele>754.5</ele>
        <time>2024-11-07T12:20:04.000Z</time>
      </trkpt>
      <trkpt lat="44.14911" lon="3.20921">
        <ele>754.7</ele>
        <time>2024-11-07T12:20:07.000Z</time>
      </trkpt>
      <trkpt lat="44.14913" lon="3.20906">
        <ele>755</ele>
        <time>2024-11-07T12:20:10.000Z</time>
      </trkpt>
      <trkpt lat="44.14916" lon="3.20893">
        <ele>755.2</ele>
        <time>2024-11-07T12:20:13.000Z</time>
      </trkpt>
      <trkpt lat="44.14923" lon="3.20881">
        <ele>755.5</ele>
        <time>2024-11-07T12:20:17.000Z</time>
      </trkpt>
      <trkpt lat="44.14928" lon="3.20869">
        <ele>755.7</ele>
        <time>2024-11-07T12:20:20.000Z</time>
      </trkpt>
      <trkpt lat="44.14929" lon="3.20854">
        <ele>756</ele>
        <time>2024-11-07T12:20:23.000Z</time>
      </trkpt>
      <trkpt lat="44.14929" lon="3.20839">
        <ele>756.2</ele>
        <time>2024-11-07T12:20:26.000Z</time>
      </trkpt>
      <trkpt lat="44.1493" lon="3.20825">
        <ele>756.4</ele>
        <time>2024-11-07T12:20:29.000Z</time>
      </trkpt>
      <trkpt lat="44.14928" lon="3.20813">
        <ele>756.5</ele>
        <time>2024-11-07T12:20:32.000Z</time>
      </trkpt>
      <trkpt lat="44.1492" lon="3.208">
        <ele>756.7</ele>
        <time>2024-11-07T12:20:36.000Z</time>
      </trkpt>
      <trkpt lat="44.14911" lon="3.20795">
        <ele>756.8</ele>
        <time>2024-11-07T12:20:40.000Z</time>
      </trkpt>
      <trkpt lat="44.14902" lon="3.20792">
        <ele>756.9</ele>
        <time>2024-11-07T12:20:44.000Z</time>
      </trkpt>
      <trkpt lat="44.14895" lon="3.2078">
        <ele>757</ele>
        <time>2024-11-07T12:20:49.000Z</time>
      </trkpt>
      <trkpt lat="44.14886" lon="3.20772">
        <ele>757.2</ele>
        <time>2024-11-07T12:20:55.000Z</time>
      </trkpt>
      <trkpt lat="44.14877" lon="3.20767">
        <ele>757.2</ele>
        <time>2024-11-07T12:21:00.000Z</time>
      </trkpt>
      <trkpt lat="44.14866" lon="3.20761">
        <ele>757.3</ele>
        <time>2024-11-07T12:21:05.000Z</time>
      </trkpt>
      <trkpt lat="44.14858" lon="3.20756">
        <ele>757.4</ele>
        <time>2024-11-07T12:21:09.000Z</time>
      </trkpt>
      <trkpt lat="44.14846" lon="3.20751">
        <ele>757.4</ele>
        <time>2024-11-07T12:21:13.000Z</time>
      </trkpt>
      <trkpt lat="44.14836" lon="3.20748">
        <ele>757.3</ele>
        <time>2024-11-07T12:21:16.000Z</time>
      </trkpt>
      <trkpt lat="44.14824" lon="3.20745">
        <ele>757.1</ele>
        <time>2024-11-07T12:21:19.000Z</time>
      </trkpt>
      <trkpt lat="44.14812" lon="3.20741">
        <ele>756.9</ele>
        <time>2024-11-07T12:21:22.000Z</time>
      </trkpt>
      <trkpt lat="44.14804" lon="3.20729">
        <ele>756.7</ele>
        <time>2024-11-07T12:21:25.000Z</time>
      </trkpt>
      <trkpt lat="44.14801" lon="3.20713">
        <ele>756.5</ele>
        <time>2024-11-07T12:21:28.000Z</time>
      </trkpt>
      <trkpt lat="44.14803" lon="3.20696">
        <ele>756.2</ele>
        <time>2024-11-07T12:21:31.000Z</time>
      </trkpt>
      <trkpt lat="44.14797" lon="3.20682">
        <ele>755.8</ele>
        <time>2024-11-07T12:21:34.000Z</time>
      </trkpt>
      <trkpt lat="44.14788" lon="3.2068">
        <ele>755.3</ele>
        <time>2024-11-07T12:21:38.000Z</time>
      </trkpt>
      <trkpt lat="44.1478" lon="3.20689">
        <ele>752.5</ele>
        <time>2024-11-07T12:22:44.000Z</time>
      </trkpt>
      <trkpt lat="44.1477" lon="3.20695">
        <ele>752.6</ele>
        <time>2024-11-07T12:22:47.000Z</time>
      </trkpt>
      <trkpt lat="44.14761" lon="3.20704">
        <ele>752.6</ele>
        <time>2024-11-07T12:22:51.000Z</time>
      </trkpt>
      <trkpt lat="44.14756" lon="3.20715">
        <ele>752.7</ele>
        <time>2024-11-07T12:22:56.000Z</time>
      </trkpt>
      <trkpt lat="44.14754" lon="3.20729">
        <ele>752.8</ele>
        <time>2024-11-07T12:23:02.000Z</time>
      </trkpt>
      <trkpt lat="44.14753" lon="3.20742">
        <ele>753.1</ele>
        <time>2024-11-07T12:23:07.000Z</time>
      </trkpt>
      <trkpt lat="44.14751" lon="3.20756">
        <ele>753.4</ele>
        <time>2024-11-07T12:23:12.000Z</time>
      </trkpt>
      <trkpt lat="44.1475" lon="3.20769">
        <ele>753.7</ele>
        <time>2024-11-07T12:23:16.000Z</time>
      </trkpt>
      <trkpt lat="44.14748" lon="3.20783">
        <ele>754</ele>
        <time>2024-11-07T12:23:21.000Z</time>
      </trkpt>
      <trkpt lat="44.14747" lon="3.20796">
        <ele>754.2</ele>
        <time>2024-11-07T12:23:25.000Z</time>
      </trkpt>
      <trkpt lat="44.14744" lon="3.20811">
        <ele>754.4</ele>
        <time>2024-11-07T12:23:29.000Z</time>
      </trkpt>
      <trkpt lat="44.14738" lon="3.20823">
        <ele>754.5</ele>
        <time>2024-11-07T12:23:33.000Z</time>
      </trkpt>
      <trkpt lat="44.14734" lon="3.20838">
        <ele>754.7</ele>
        <time>2024-11-07T12:23:38.000Z</time>
      </trkpt>
      <trkpt lat="44.1473" lon="3.20851">
        <ele>754.8</ele>
        <time>2024-11-07T12:23:43.000Z</time>
      </trkpt>
      <trkpt lat="44.14724" lon="3.20863">
        <ele>755.3</ele>
        <time>2024-11-07T12:23:48.000Z</time>
      </trkpt>
      <trkpt lat="44.14718" lon="3.20872">
        <ele>755.7</ele>
        <time>2024-11-07T12:23:53.000Z</time>
      </trkpt>
      <trkpt lat="44.14711" lon="3.20884">
        <ele>756.2</ele>
        <time>2024-11-07T12:23:58.000Z</time>
      </trkpt>
      <trkpt lat="44.14705" lon="3.20894">
        <ele>756.5</ele>
        <time>2024-11-07T12:24:02.000Z</time>
      </trkpt>
      <trkpt lat="44.14698" lon="3.20905">
        <ele>756.8</ele>
        <time>2024-11-07T12:24:06.000Z</time>
      </trkpt>
      <trkpt lat="44.14689" lon="3.20915">
        <ele>756.9</ele>
        <time>2024-11-07T12:24:10.000Z</time>
      </trkpt>
      <trkpt lat="44.14678" lon="3.2092">
        <ele>756.9</ele>
        <time>2024-11-07T12:24:14.000Z</time>
      </trkpt>
      <trkpt lat="44.14668" lon="3.20922">
        <ele>757</ele>
        <time>2024-11-07T12:24:17.000Z</time>
      </trkpt>
      <trkpt lat="44.14656" lon="3.20926">
        <ele>756.9</ele>
        <time>2024-11-07T12:24:20.000Z</time>
      </trkpt>
      <trkpt lat="44.14647" lon="3.20931">
        <ele>756.6</ele>
        <time>2024-11-07T12:24:22.000Z</time>
      </trkpt>
      <trkpt lat="44.14636" lon="3.20938">
        <ele>756.2</ele>
        <time>2024-11-07T12:24:24.000Z</time>
      </trkpt>
      <trkpt lat="44.14625" lon="3.20949">
        <ele>755.8</ele>
        <time>2024-11-07T12:24:26.000Z</time>
      </trkpt>
      <trkpt lat="44.14617" lon="3.20964">
        <ele>755.4</ele>
        <time>2024-11-07T12:24:28.000Z</time>
      </trkpt>
      <trkpt lat="44.14607" lon="3.20968">
        <ele>754.9</ele>
        <time>2024-11-07T12:24:31.000Z</time>
      </trkpt>
      <trkpt lat="44.14597" lon="3.20969">
        <ele>754.5</ele>
        <time>2024-11-07T12:24:37.000Z</time>
      </trkpt>
      <trkpt lat="44.14587" lon="3.20965">
        <ele>754.6</ele>
        <time>2024-11-07T12:24:44.000Z</time>
      </trkpt>
      <trkpt lat="44.14583" lon="3.20953">
        <ele>755</ele>
        <time>2024-11-07T12:24:50.000Z</time>
      </trkpt>
      <trkpt lat="44.14576" lon="3.20945">
        <ele>755.6</ele>
        <time>2024-11-07T12:24:57.000Z</time>
      </trkpt>
      <trkpt lat="44.14568" lon="3.20936">
        <ele>756.3</ele>
        <time>2024-11-07T12:25:04.000Z</time>
      </trkpt>
      <trkpt lat="44.1456" lon="3.20928">
        <ele>757.4</ele>
        <time>2024-11-07T12:25:11.000Z</time>
      </trkpt>
      <trkpt lat="44.14552" lon="3.20922">
        <ele>758.3</ele>
        <time>2024-11-07T12:25:19.000Z</time>
      </trkpt>
      <trkpt lat="44.14543" lon="3.20916">
        <ele>759.3</ele>
        <time>2024-11-07T12:25:27.000Z</time>
      </trkpt>
      <trkpt lat="44.14533" lon="3.20915">
        <ele>760.6</ele>
        <time>2024-11-07T12:25:36.000Z</time>
      </trkpt>
      <trkpt lat="44.14524" lon="3.20916">
        <ele>762.2</ele>
        <time>2024-11-07T12:25:44.000Z</time>
      </trkpt>
      <trkpt lat="44.14514" lon="3.20915">
        <ele>763.5</ele>
        <time>2024-11-07T12:25:52.000Z</time>
      </trkpt>
      <trkpt lat="44.14505" lon="3.20919">
        <ele>765</ele>
        <time>2024-11-07T12:26:00.000Z</time>
      </trkpt>
      <trkpt lat="44.14498" lon="3.20927">
        <ele>766.2</ele>
        <time>2024-11-07T12:26:07.000Z</time>
      </trkpt>
      <trkpt lat="44.14496" lon="3.2094">
        <ele>767.1</ele>
        <time>2024-11-07T12:26:13.000Z</time>
      </trkpt>
      <trkpt lat="44.14493" lon="3.20953">
        <ele>768.2</ele>
        <time>2024-11-07T12:26:20.000Z</time>
      </trkpt>
      <trkpt lat="44.14485" lon="3.20945">
        <ele>769.6</ele>
        <time>2024-11-07T12:26:29.000Z</time>
      </trkpt>
      <trkpt lat="44.14483" lon="3.20931">
        <ele>770.7</ele>
        <time>2024-11-07T12:26:36.000Z</time>
      </trkpt>
      <trkpt lat="44.14483" lon="3.20918">
        <ele>771.6</ele>
        <time>2024-11-07T12:26:43.000Z</time>
      </trkpt>
      <trkpt lat="44.14484" lon="3.20905">
        <ele>772.5</ele>
        <time>2024-11-07T12:26:49.000Z</time>
      </trkpt>
      <trkpt lat="44.14488" lon="3.20893">
        <ele>773.6</ele>
        <time>2024-11-07T12:26:56.000Z</time>
      </trkpt>
      <trkpt lat="44.14494" lon="3.20883">
        <ele>774.7</ele>
        <time>2024-11-07T12:27:02.000Z</time>
      </trkpt>
      <trkpt lat="44.145" lon="3.20874">
        <ele>775.6</ele>
        <time>2024-11-07T12:27:08.000Z</time>
      </trkpt>
      <trkpt lat="44.14503" lon="3.2086">
        <ele>776.2</ele>
        <time>2024-11-07T12:27:13.000Z</time>
      </trkpt>
      <trkpt lat="44.14499" lon="3.20847">
        <ele>776.4</ele>
        <time>2024-11-07T12:27:16.000Z</time>
      </trkpt>
      <trkpt lat="44.14498" lon="3.20833">
        <ele>776.6</ele>
        <time>2024-11-07T12:27:19.000Z</time>
      </trkpt>
      <trkpt lat="44.145" lon="3.20819">
        <ele>776.8</ele>
        <time>2024-11-07T12:27:23.000Z</time>
      </trkpt>
      <trkpt lat="44.14502" lon="3.20805">
        <ele>777</ele>
        <time>2024-11-07T12:27:27.000Z</time>
      </trkpt>
      <trkpt lat="44.14504" lon="3.2079">
        <ele>777.1</ele>
        <time>2024-11-07T12:27:32.000Z</time>
      </trkpt>
      <trkpt lat="44.14506" lon="3.20775">
        <ele>777.4</ele>
        <time>2024-11-07T12:27:37.000Z</time>
      </trkpt>
      <trkpt lat="44.14509" lon="3.20761">
        <ele>777.9</ele>
        <time>2024-11-07T12:27:42.000Z</time>
      </trkpt>
      <trkpt lat="44.14513" lon="3.20749">
        <ele>778.1</ele>
        <time>2024-11-07T12:27:46.000Z</time>
      </trkpt>
      <trkpt lat="44.14517" lon="3.20735">
        <ele>778.6</ele>
        <time>2024-11-07T12:27:51.000Z</time>
      </trkpt>
      <trkpt lat="44.14524" lon="3.20725">
        <ele>779.2</ele>
        <time>2024-11-07T12:27:57.000Z</time>
      </trkpt>
      <trkpt lat="44.14529" lon="3.20712">
        <ele>779.6</ele>
        <time>2024-11-07T12:28:02.000Z</time>
      </trkpt>
      <trkpt lat="44.14535" lon="3.207">
        <ele>780.1</ele>
        <time>2024-11-07T12:28:07.000Z</time>
      </trkpt>
      <trkpt lat="44.14544" lon="3.20691">
        <ele>780.6</ele>
        <time>2024-11-07T12:28:13.000Z</time>
      </trkpt>
      <trkpt lat="44.14553" lon="3.20685">
        <ele>781.5</ele>
        <time>2024-11-07T12:28:19.000Z</time>
      </trkpt>
      <trkpt lat="44.14561" lon="3.20677">
        <ele>782.4</ele>
        <time>2024-11-07T12:28:25.000Z</time>
      </trkpt>
      <trkpt lat="44.14567" lon="3.20667">
        <ele>783.5</ele>
        <time>2024-11-07T12:28:31.000Z</time>
      </trkpt>
      <trkpt lat="44.14572" lon="3.20655">
        <ele>784.5</ele>
        <time>2024-11-07T12:28:37.000Z</time>
      </trkpt>
      <trkpt lat="44.14579" lon="3.20647">
        <ele>785.3</ele>
        <time>2024-11-07T12:28:43.000Z</time>
      </trkpt>
      <trkpt lat="44.14587" lon="3.2064">
        <ele>786.3</ele>
        <time>2024-11-07T12:28:50.000Z</time>
      </trkpt>
      <trkpt lat="44.14593" lon="3.20629">
        <ele>787.5</ele>
        <time>2024-11-07T12:28:57.000Z</time>
      </trkpt>
      <trkpt lat="44.14597" lon="3.20617">
        <ele>788.3</ele>
        <time>2024-11-07T12:29:03.000Z</time>
      </trkpt>
      <trkpt lat="44.14605" lon="3.20608">
        <ele>789.4</ele>
        <time>2024-11-07T12:29:10.000Z</time>
      </trkpt>
      <trkpt lat="44.14613" lon="3.20602">
        <ele>790.6</ele>
        <time>2024-11-07T12:29:17.000Z</time>
      </trkpt>
      <trkpt lat="44.1462" lon="3.20592">
        <ele>792</ele>
        <time>2024-11-07T12:29:25.000Z</time>
      </trkpt>
      <trkpt lat="44.14621" lon="3.20579">
        <ele>793.3</ele>
        <time>2024-11-07T12:29:33.000Z</time>
      </trkpt>
      <trkpt lat="44.14623" lon="3.20566">
        <ele>794.4</ele>
        <time>2024-11-07T12:29:41.000Z</time>
      </trkpt>
      <trkpt lat="44.14623" lon="3.20553">
        <ele>796</ele>
        <time>2024-11-07T12:29:50.000Z</time>
      </trkpt>
      <trkpt lat="44.14621" lon="3.20539">
        <ele>797.7</ele>
        <time>2024-11-07T12:29:59.000Z</time>
      </trkpt>
      <trkpt lat="44.14619" lon="3.20526">
        <ele>798.9</ele>
        <time>2024-11-07T12:30:06.000Z</time>
      </trkpt>
      <trkpt lat="44.14614" lon="3.20515">
        <ele>800.3</ele>
        <time>2024-11-07T12:30:14.000Z</time>
      </trkpt>
      <trkpt lat="44.14612" lon="3.20501">
        <ele>801.3</ele>
        <time>2024-11-07T12:30:21.000Z</time>
      </trkpt>
      <trkpt lat="44.14615" lon="3.20487">
        <ele>802.2</ele>
        <time>2024-11-07T12:30:28.000Z</time>
      </trkpt>
      <trkpt lat="44.14616" lon="3.20474">
        <ele>803.2</ele>
        <time>2024-11-07T12:30:35.000Z</time>
      </trkpt>
      <trkpt lat="44.14616" lon="3.2046">
        <ele>803.9</ele>
        <time>2024-11-07T12:30:41.000Z</time>
      </trkpt>
      <trkpt lat="44.14617" lon="3.20446">
        <ele>804.4</ele>
        <time>2024-11-07T12:30:47.000Z</time>
      </trkpt>
      <trkpt lat="44.14619" lon="3.20433">
        <ele>805.2</ele>
        <time>2024-11-07T12:30:53.000Z</time>
      </trkpt>
      <trkpt lat="44.14622" lon="3.2042">
        <ele>806</ele>
        <time>2024-11-07T12:31:00.000Z</time>
      </trkpt>
      <trkpt lat="44.14625" lon="3.20406">
        <ele>807</ele>
        <time>2024-11-07T12:31:08.000Z</time>
      </trkpt>
      <trkpt lat="44.14628" lon="3.20406">
        <ele>808.5</ele>
        <time>2024-11-07T12:37:14.000Z</time>
      </trkpt>
      <trkpt lat="44.14637" lon="3.20403">
        <ele>809.6</ele>
        <time>2024-11-07T12:37:24.000Z</time>
      </trkpt>
      <trkpt lat="44.14642" lon="3.20391">
        <ele>811.5</ele>
        <time>2024-11-07T12:37:36.000Z</time>
      </trkpt>
      <trkpt lat="44.14641" lon="3.20377">
        <ele>813.2</ele>
        <time>2024-11-07T12:37:46.000Z</time>
      </trkpt>
      <trkpt lat="44.14638" lon="3.20365">
        <ele>815</ele>
        <time>2024-11-07T12:37:56.000Z</time>
      </trkpt>
      <trkpt lat="44.14634" lon="3.20353">
        <ele>816.8</ele>
        <time>2024-11-07T12:38:05.000Z</time>
      </trkpt>
      <trkpt lat="44.14633" lon="3.2034">
        <ele>818.1</ele>
        <time>2024-11-07T12:38:13.000Z</time>
      </trkpt>
      <trkpt lat="44.14633" lon="3.20327">
        <ele>819.2</ele>
        <time>2024-11-07T12:38:21.000Z</time>
      </trkpt>
      <trkpt lat="44.14636" lon="3.20314">
        <ele>820.9</ele>
        <time>2024-11-07T12:38:31.000Z</time>
      </trkpt>
      <trkpt lat="44.14639" lon="3.203">
        <ele>822.8</ele>
        <time>2024-11-07T12:38:41.000Z</time>
      </trkpt>
      <trkpt lat="44.1464" lon="3.20287">
        <ele>824.7</ele>
        <time>2024-11-07T12:38:51.000Z</time>
      </trkpt>
      <trkpt lat="44.1464" lon="3.20274">
        <ele>826.3</ele>
        <time>2024-11-07T12:38:59.000Z</time>
      </trkpt>
      <trkpt lat="44.1464" lon="3.20261">
        <ele>828</ele>
        <time>2024-11-07T12:39:07.000Z</time>
      </trkpt>
      <trkpt lat="44.14639" lon="3.20248">
        <ele>829.4</ele>
        <time>2024-11-07T12:39:14.000Z</time>
      </trkpt>
      <trkpt lat="44.14639" lon="3.20236">
        <ele>830.2</ele>
        <time>2024-11-07T12:39:19.000Z</time>
      </trkpt>
      <trkpt lat="44.14639" lon="3.20221">
        <ele>830.8</ele>
        <time>2024-11-07T12:39:24.000Z</time>
      </trkpt>
      <trkpt lat="44.14639" lon="3.20207">
        <ele>831.3</ele>
        <time>2024-11-07T12:39:29.000Z</time>
      </trkpt>
      <trkpt lat="44.14636" lon="3.20194">
        <ele>831.6</ele>
        <time>2024-11-07T12:39:33.000Z</time>
      </trkpt>
      <trkpt lat="44.14635" lon="3.20182">
        <ele>831.9</ele>
        <time>2024-11-07T12:39:37.000Z</time>
      </trkpt>
      <trkpt lat="44.14632" lon="3.2017">
        <ele>832.2</ele>
        <time>2024-11-07T12:39:41.000Z</time>
      </trkpt>
      <trkpt lat="44.14635" lon="3.20157">
        <ele>832.4</ele>
        <time>2024-11-07T12:39:45.000Z</time>
      </trkpt>
      <trkpt lat="44.1464" lon="3.20146">
        <ele>832.5</ele>
        <time>2024-11-07T12:39:49.000Z</time>
      </trkpt>
      <trkpt lat="44.14647" lon="3.20135">
        <ele>832.7</ele>
        <time>2024-11-07T12:39:53.000Z</time>
      </trkpt>
      <trkpt lat="44.14656" lon="3.20124">
        <ele>832.8</ele>
        <time>2024-11-07T12:39:57.000Z</time>
      </trkpt>
      <trkpt lat="44.14664" lon="3.20111">
        <ele>832.8</ele>
        <time>2024-11-07T12:40:01.000Z</time>
      </trkpt>
      <trkpt lat="44.14668" lon="3.20099">
        <ele>832.9</ele>
        <time>2024-11-07T12:40:04.000Z</time>
      </trkpt>
      <trkpt lat="44.14672" lon="3.20085">
        <ele>832.9</ele>
        <time>2024-11-07T12:40:07.000Z</time>
      </trkpt>
      <trkpt lat="44.14675" lon="3.20071">
        <ele>833</ele>
        <time>2024-11-07T12:40:10.000Z</time>
      </trkpt>
      <trkpt lat="44.14678" lon="3.20055">
        <ele>833</ele>
        <time>2024-11-07T12:40:13.000Z</time>
      </trkpt>
      <trkpt lat="44.14679" lon="3.20037">
        <ele>833</ele>
        <time>2024-11-07T12:40:16.000Z</time>
      </trkpt>
      <trkpt lat="44.14678" lon="3.2002">
        <ele>832.9</ele>
        <time>2024-11-07T12:40:19.000Z</time>
      </trkpt>
      <trkpt lat="44.14679" lon="3.20004">
        <ele>832.8</ele>
        <time>2024-11-07T12:40:22.000Z</time>
      </trkpt>
      <trkpt lat="44.1468" lon="3.19988">
        <ele>832.7</ele>
        <time>2024-11-07T12:40:25.000Z</time>
      </trkpt>
      <trkpt lat="44.14679" lon="3.19972">
        <ele>832.6</ele>
        <time>2024-11-07T12:40:28.000Z</time>
      </trkpt>
      <trkpt lat="44.14678" lon="3.19957">
        <ele>832.5</ele>
        <time>2024-11-07T12:40:31.000Z</time>
      </trkpt>
      <trkpt lat="44.1468" lon="3.19944">
        <ele>832.4</ele>
        <time>2024-11-07T12:40:35.000Z</time>
      </trkpt>
      <trkpt lat="44.14681" lon="3.19929">
        <ele>832.3</ele>
        <time>2024-11-07T12:40:40.000Z</time>
      </trkpt>
      <trkpt lat="44.14683" lon="3.19917">
        <ele>832.2</ele>
        <time>2024-11-07T12:40:43.000Z</time>
      </trkpt>
      <trkpt lat="44.14684" lon="3.19904">
        <ele>832.1</ele>
        <time>2024-11-07T12:40:46.000Z</time>
      </trkpt>
      <trkpt lat="44.14682" lon="3.19889">
        <ele>831.9</ele>
        <time>2024-11-07T12:40:50.000Z</time>
      </trkpt>
      <trkpt lat="44.14677" lon="3.19877">
        <ele>831.8</ele>
        <time>2024-11-07T12:40:54.000Z</time>
      </trkpt>
      <trkpt lat="44.14683" lon="3.19865">
        <ele>831.2</ele>
        <time>2024-11-07T12:41:44.000Z</time>
      </trkpt>
      <trkpt lat="44.14691" lon="3.19854">
        <ele>831.2</ele>
        <time>2024-11-07T12:41:49.000Z</time>
      </trkpt>
      <trkpt lat="44.14697" lon="3.19845">
        <ele>831.2</ele>
        <time>2024-11-07T12:41:54.000Z</time>
      </trkpt>
      <trkpt lat="44.14704" lon="3.19835">
        <ele>831.2</ele>
        <time>2024-11-07T12:41:59.000Z</time>
      </trkpt>
      <trkpt lat="44.1471" lon="3.19822">
        <ele>831.2</ele>
        <time>2024-11-07T12:42:03.000Z</time>
      </trkpt>
      <trkpt lat="44.14716" lon="3.19811">
        <ele>831.2</ele>
        <time>2024-11-07T12:42:06.000Z</time>
      </trkpt>
      <trkpt lat="44.14724" lon="3.19802">
        <ele>831.2</ele>
        <time>2024-11-07T12:42:09.000Z</time>
      </trkpt>
      <trkpt lat="44.14732" lon="3.19792">
        <ele>831.2</ele>
        <time>2024-11-07T12:42:12.000Z</time>
      </trkpt>
      <trkpt lat="44.14738" lon="3.19782">
        <ele>831.1</ele>
        <time>2024-11-07T12:42:15.000Z</time>
      </trkpt>
      <trkpt lat="44.14743" lon="3.19768">
        <ele>831.1</ele>
        <time>2024-11-07T12:42:18.000Z</time>
      </trkpt>
      <trkpt lat="44.14747" lon="3.19755">
        <ele>831.1</ele>
        <time>2024-11-07T12:42:21.000Z</time>
      </trkpt>
      <trkpt lat="44.1475" lon="3.19741">
        <ele>831.1</ele>
        <time>2024-11-07T12:42:24.000Z</time>
      </trkpt>
      <trkpt lat="44.14755" lon="3.19727">
        <ele>831.1</ele>
        <time>2024-11-07T12:42:27.000Z</time>
      </trkpt>
      <trkpt lat="44.14759" lon="3.19714">
        <ele>831.1</ele>
        <time>2024-11-07T12:42:30.000Z</time>
      </trkpt>
      <trkpt lat="44.14763" lon="3.19701">
        <ele>831</ele>
        <time>2024-11-07T12:42:33.000Z</time>
      </trkpt>
      <trkpt lat="44.14767" lon="3.19688">
        <ele>831</ele>
        <time>2024-11-07T12:42:36.000Z</time>
      </trkpt>
      <trkpt lat="44.14771" lon="3.19675">
        <ele>831</ele>
        <time>2024-11-07T12:42:39.000Z</time>
      </trkpt>
      <trkpt lat="44.14777" lon="3.19663">
        <ele>831</ele>
        <time>2024-11-07T12:42:42.000Z</time>
      </trkpt>
      <trkpt lat="44.14782" lon="3.1965">
        <ele>831</ele>
        <time>2024-11-07T12:42:45.000Z</time>
      </trkpt>
      <trkpt lat="44.14788" lon="3.19639">
        <ele>831</ele>
        <time>2024-11-07T12:42:48.000Z</time>
      </trkpt>
      <trkpt lat="44.14794" lon="3.19628">
        <ele>831</ele>
        <time>2024-11-07T12:42:51.000Z</time>
      </trkpt>
      <trkpt lat="44.14799" lon="3.19616">
        <ele>831</ele>
        <time>2024-11-07T12:42:54.000Z</time>
      </trkpt>
      <trkpt lat="44.14803" lon="3.19604">
        <ele>831</ele>
        <time>2024-11-07T12:42:57.000Z</time>
      </trkpt>
      <trkpt lat="44.14805" lon="3.1959">
        <ele>831</ele>
        <time>2024-11-07T12:43:00.000Z</time>
      </trkpt>
      <trkpt lat="44.14804" lon="3.19577">
        <ele>831.1</ele>
        <time>2024-11-07T12:43:03.000Z</time>
      </trkpt>
      <trkpt lat="44.14802" lon="3.1956">
        <ele>831.3</ele>
        <time>2024-11-07T12:43:07.000Z</time>
      </trkpt>
      <trkpt lat="44.14799" lon="3.19546">
        <ele>831.5</ele>
        <time>2024-11-07T12:43:11.000Z</time>
      </trkpt>
      <trkpt lat="44.14794" lon="3.19534">
        <ele>831.6</ele>
        <time>2024-11-07T12:43:15.000Z</time>
      </trkpt>
      <trkpt lat="44.14787" lon="3.19522">
        <ele>831.8</ele>
        <time>2024-11-07T12:43:20.000Z</time>
      </trkpt>
      <trkpt lat="44.14784" lon="3.19506">
        <ele>832</ele>
        <time>2024-11-07T12:43:24.000Z</time>
      </trkpt>
      <trkpt lat="44.14784" lon="3.19489">
        <ele>832</ele>
        <time>2024-11-07T12:43:27.000Z</time>
      </trkpt>
      <trkpt lat="44.14784" lon="3.19477">
        <ele>832</ele>
        <time>2024-11-07T12:43:29.000Z</time>
      </trkpt>
      <trkpt lat="44.14785" lon="3.19462">
        <ele>832</ele>
        <time>2024-11-07T12:43:31.000Z</time>
      </trkpt>
      <trkpt lat="44.14785" lon="3.19447">
        <ele>831.9</ele>
        <time>2024-11-07T12:43:33.000Z</time>
      </trkpt>
      <trkpt lat="44.14786" lon="3.19431">
        <ele>831.7</ele>
        <time>2024-11-07T12:43:35.000Z</time>
      </trkpt>
      <trkpt lat="44.14787" lon="3.19415">
        <ele>831.6</ele>
        <time>2024-11-07T12:43:37.000Z</time>
      </trkpt>
      <trkpt lat="44.14787" lon="3.19399">
        <ele>831.5</ele>
        <time>2024-11-07T12:43:39.000Z</time>
      </trkpt>
      <trkpt lat="44.14788" lon="3.19382">
        <ele>831.4</ele>
        <time>2024-11-07T12:43:41.000Z</time>
      </trkpt>
      <trkpt lat="44.14789" lon="3.19366">
        <ele>831.2</ele>
        <time>2024-11-07T12:43:43.000Z</time>
      </trkpt>
      <trkpt lat="44.1479" lon="3.1935">
        <ele>831.1</ele>
        <time>2024-11-07T12:43:45.000Z</time>
      </trkpt>
      <trkpt lat="44.1479" lon="3.19334">
        <ele>831</ele>
        <time>2024-11-07T12:43:47.000Z</time>
      </trkpt>
      <trkpt lat="44.1479" lon="3.19319">
        <ele>830.9</ele>
        <time>2024-11-07T12:43:49.000Z</time>
      </trkpt>
      <trkpt lat="44.1479" lon="3.19305">
        <ele>830.8</ele>
        <time>2024-11-07T12:43:51.000Z</time>
      </trkpt>
      <trkpt lat="44.14789" lon="3.19292">
        <ele>830.8</ele>
        <time>2024-11-07T12:43:53.000Z</time>
      </trkpt>
    </trkseg>
  </trk>
</gpx>